createdAt,value
2024-05-09T00:00:59.952Z,10.76
2024-05-09T00:03:04.100Z,10.73
2024-05-09T00:05:09.242Z,10.72
2024-05-09T00:07:12.920Z,10.74
2024-05-09T00:09:17.567Z,10.74
2024-05-09T00:11:24.324Z,10.70
2024-05-09T00:13:30.333Z,10.72
2024-05-09T00:15:34.200Z,10.71
2024-05-09T00:17:40.024Z,10.68
2024-05-09T00:19:47.170Z,10.68
2024-05-09T00:21:50.216Z,10.66
2024-05-09T00:23:56.402Z,10.66
2024-05-09T00:26:02.116Z,10.66
2024-05-09T00:28:05.896Z,10.67
2024-05-09T00:30:21.011Z,10.63
2024-05-09T00:32:27.959Z,10.64
2024-05-09T00:34:31.697Z,10.63
2024-05-09T00:36:39.337Z,10.64
2024-05-09T00:38:43.007Z,10.63
2024-05-09T00:40:46.154Z,10.59
2024-05-09T00:42:49.931Z,10.58
2024-05-09T00:44:54.490Z,10.59
2024-05-09T00:46:58.897Z,10.58
2024-05-09T00:49:02.479Z,10.55
2024-05-09T00:51:07.048Z,10.55
2024-05-09T00:53:16.170Z,10.55
2024-05-09T00:55:21.365Z,10.58
2024-05-09T00:57:31.186Z,10.56
2024-05-09T00:59:36.061Z,10.54
2024-05-09T01:01:39.435Z,10.52
2024-05-09T01:03:47.965Z,10.48
2024-05-09T01:05:54.257Z,10.45
2024-05-09T01:07:58.276Z,10.47
2024-05-09T01:10:05.509Z,10.47
2024-05-09T01:12:10.692Z,10.44
2024-05-09T01:14:14.560Z,10.46
2024-05-09T01:16:19.671Z,10.42
2024-05-09T01:18:27.490Z,10.43
2024-05-09T01:20:39.862Z,10.43
2024-05-09T01:22:46.901Z,10.41
2024-05-09T01:24:53.074Z,10.39
2024-05-09T01:26:56.258Z,10.40
2024-05-09T01:29:01.797Z,10.41
2024-05-09T01:31:05.189Z,10.38
2024-05-09T01:33:11.319Z,10.36
2024-05-09T01:35:16.303Z,10.36
2024-05-09T01:37:19.484Z,10.36
2024-05-09T01:39:27.425Z,10.34
2024-05-09T01:41:33.302Z,10.35
2024-05-09T01:43:37.001Z,10.32
2024-05-09T01:45:41.854Z,10.31
2024-05-09T01:47:45.854Z,10.29
2024-05-09T01:49:49.032Z,10.32
2024-05-09T01:51:52.079Z,10.33
2024-05-09T01:53:56.862Z,10.29
2024-05-09T01:56:00.062Z,10.27
2024-05-09T01:58:04.068Z,10.25
2024-05-09T02:00:10.282Z,10.25
2024-05-09T02:02:14.098Z,10.26
2024-05-09T02:04:18.649Z,10.21
2024-05-09T02:06:22.380Z,10.24
2024-05-09T02:08:25.505Z,10.23
2024-05-09T02:10:32.610Z,10.20
2024-05-09T02:12:36.518Z,10.20
2024-05-09T02:14:39.600Z,10.17
2024-05-09T02:16:42.847Z,10.17
2024-05-09T02:18:46.986Z,10.18
2024-05-09T02:20:50.256Z,10.17
2024-05-09T02:22:53.950Z,10.14
2024-05-09T02:24:59.048Z,10.13
2024-05-09T02:27:02.278Z,10.13
2024-05-09T02:29:05.401Z,10.12
2024-05-09T02:31:09.412Z,10.08
2024-05-09T02:33:14.288Z,10.09
2024-05-09T02:35:18.311Z,10.08
2024-05-09T02:37:22.051Z,10.06
2024-05-09T02:39:25.505Z,10.08
2024-05-09T02:41:28.560Z,10.07
2024-05-09T02:43:32.279Z,10.05
2024-05-09T02:45:35.309Z,10.04
2024-05-09T02:47:38.541Z,10.03
2024-05-09T02:49:42.390Z,10.03
2024-05-09T02:51:47.833Z,10.00
2024-05-09T02:53:51.003Z,10.00
2024-05-09T02:55:54.706Z,9.97
2024-05-09T02:57:57.772Z,9.96
2024-05-09T03:00:00.822Z,9.95
2024-05-09T03:02:04.673Z,9.96
2024-05-09T03:04:08.561Z,9.94
2024-05-09T03:06:14.721Z,9.94
2024-05-09T03:08:17.773Z,9.93
2024-05-09T03:10:25.606Z,9.92
2024-05-09T03:12:35.111Z,9.90
2024-05-09T03:14:41.597Z,9.92
2024-05-09T03:16:48.457Z,9.89
2024-05-09T03:18:52.898Z,9.89
2024-05-09T03:21:05.655Z,9.88
2024-05-09T03:23:10.060Z,9.87
2024-05-09T03:25:18.690Z,9.86
2024-05-09T03:27:24.568Z,9.87
2024-05-09T03:29:29.016Z,9.86
2024-05-09T03:31:32.146Z,9.83
2024-05-09T03:33:37.407Z,9.84
2024-05-09T03:35:42.126Z,9.83
2024-05-09T03:37:45.957Z,9.82
2024-05-09T03:39:49.123Z,9.80
2024-05-09T03:41:52.266Z,9.80
2024-05-09T03:44:00.767Z,9.80
2024-05-09T03:46:04.648Z,9.78
2024-05-09T03:48:08.482Z,9.76
2024-05-09T03:50:22.018Z,9.76
2024-05-09T03:52:29.682Z,9.76
2024-05-09T03:54:37.302Z,9.73
2024-05-09T03:56:41.001Z,9.71
2024-05-09T03:58:44.842Z,9.68
2024-05-09T04:00:47.921Z,9.66
2024-05-09T04:02:51.195Z,9.65
2024-05-09T04:04:55.816Z,9.62
2024-05-09T04:06:58.999Z,9.63
2024-05-09T04:09:02.715Z,9.60
2024-05-09T04:11:06.527Z,9.61
2024-05-09T04:13:11.423Z,9.61
2024-05-09T04:15:14.915Z,9.59
2024-05-09T04:17:19.774Z,9.54
2024-05-09T04:19:23.980Z,9.57
2024-05-09T04:21:28.795Z,9.58
2024-05-09T04:23:32.061Z,9.56
2024-05-09T04:25:35.889Z,9.57
2024-05-09T04:27:40.948Z,9.55
2024-05-09T04:29:44.011Z,9.53
2024-05-09T04:31:47.830Z,9.53
2024-05-09T04:33:51.090Z,9.53
2024-05-09T04:35:54.373Z,9.51
2024-05-09T04:37:57.875Z,9.52
2024-05-09T04:40:00.917Z,9.50
2024-05-09T04:42:04.967Z,9.52
2024-05-09T04:44:08.030Z,9.49
2024-05-09T04:46:11.475Z,9.46
2024-05-09T04:48:15.602Z,9.47
2024-05-09T04:50:29.951Z,9.49
2024-05-09T04:52:39.518Z,9.49
2024-05-09T04:54:43.589Z,9.47
2024-05-09T04:56:47.292Z,9.49
2024-05-09T04:58:51.742Z,9.46
2024-05-09T05:00:56.332Z,9.46
2024-05-09T05:03:03.546Z,9.45
2024-05-09T05:05:08.130Z,9.45
2024-05-09T05:07:11.267Z,9.42
2024-05-09T05:09:15.472Z,9.42
2024-05-09T05:11:18.780Z,9.40
2024-05-09T05:13:25.118Z,9.41
2024-05-09T05:15:28.415Z,9.40
2024-05-09T05:17:32.433Z,9.40
2024-05-09T05:19:35.827Z,9.37
2024-05-09T05:21:39.911Z,9.37
2024-05-09T05:23:46.383Z,9.32
2024-05-09T05:25:55.574Z,9.32
2024-05-09T05:28:01.624Z,9.29
2024-05-09T05:30:14.650Z,9.33
2024-05-09T05:32:21.983Z,9.31
2024-05-09T05:34:25.157Z,9.32
2024-05-09T05:36:28.303Z,9.30
2024-05-09T05:38:33.080Z,9.27
2024-05-09T05:40:39.889Z,9.28
2024-05-09T05:42:43.954Z,9.23
2024-05-09T05:44:47.101Z,9.25
2024-05-09T05:46:52.200Z,9.21
2024-05-09T05:48:56.096Z,9.20
2024-05-09T05:51:01.890Z,9.17
2024-05-09T05:53:08.761Z,9.19
2024-05-09T05:55:14.103Z,9.17
2024-05-09T05:57:18.014Z,9.18
2024-05-09T05:59:23.348Z,9.17
2024-05-09T06:01:30.139Z,9.18
2024-05-09T06:03:39.946Z,9.13
2024-05-09T06:05:48.363Z,9.08
2024-05-09T06:07:52.416Z,9.12
2024-05-09T06:09:58.046Z,9.11
2024-05-09T06:12:01.340Z,9.08
2024-05-09T06:14:06.057Z,9.07
2024-05-09T06:16:10.266Z,9.02
2024-05-09T06:18:16.777Z,9.02
2024-05-09T06:20:31.536Z,8.97
2024-05-09T06:22:38.839Z,8.98
2024-05-09T06:24:41.866Z,8.92
2024-05-09T06:26:47.631Z,8.93
2024-05-09T06:28:51.232Z,8.90
2024-05-09T06:30:54.338Z,8.88
2024-05-09T06:32:58.489Z,8.87
2024-05-09T06:35:01.725Z,8.85
2024-05-09T06:37:05.371Z,8.82
2024-05-09T06:39:11.221Z,8.81
2024-05-09T06:41:14.289Z,8.76
2024-05-09T06:43:20.075Z,8.73
2024-05-09T06:45:24.034Z,8.69
2024-05-09T06:47:27.214Z,8.65
2024-05-09T06:49:32.857Z,8.62
2024-05-09T06:51:40.494Z,8.57
2024-05-09T06:53:44.418Z,8.51
2024-05-09T06:55:48.137Z,8.49
2024-05-09T06:57:51.913Z,8.44
2024-05-09T06:59:57.759Z,8.42
2024-05-09T07:02:00.866Z,8.42
2024-05-09T07:04:04.241Z,8.39
2024-05-09T07:06:07.850Z,8.34
2024-05-09T07:08:11.379Z,8.34
2024-05-09T07:10:21.944Z,8.32
2024-05-09T07:12:31.753Z,8.28
2024-05-09T07:14:38.399Z,8.25
2024-05-09T07:16:43.071Z,8.22
2024-05-09T07:18:47.564Z,8.20
2024-05-09T07:20:52.143Z,8.16
2024-05-09T07:22:55.218Z,8.13
2024-05-09T07:24:58.388Z,8.10
2024-05-09T07:27:01.732Z,8.10
2024-05-09T07:29:05.998Z,8.06
2024-05-09T07:31:10.070Z,8.03
2024-05-09T07:33:21.839Z,8.01
2024-05-09T07:35:26.340Z,7.97
2024-05-09T07:37:29.749Z,7.97
2024-05-09T07:39:32.773Z,7.91
2024-05-09T07:41:36.286Z,7.91
2024-05-09T07:43:39.744Z,7.86
2024-05-09T07:45:51.409Z,7.87
2024-05-09T07:49:44.260Z,7.86
2024-05-09T07:54:35.584Z,7.82
2024-05-09T07:56:38.979Z,7.78
2024-05-09T07:58:44.605Z,7.76
2024-05-09T08:00:48.387Z,7.75
2024-05-09T08:02:51.486Z,7.72
2024-05-09T08:04:57.105Z,7.71
2024-05-09T08:07:01.681Z,7.71
2024-05-09T08:09:08.234Z,7.67
2024-05-09T08:11:17.469Z,7.65
2024-05-09T08:13:20.759Z,7.64
2024-05-09T08:15:23.800Z,7.64
2024-05-09T08:17:27.576Z,7.63
2024-05-09T08:19:30.780Z,7.58
2024-05-09T08:21:33.851Z,7.57
2024-05-09T08:23:37.135Z,7.58
2024-05-09T08:25:40.898Z,7.54
2024-05-09T08:27:44.808Z,7.53
2024-05-09T08:29:48.109Z,7.50
2024-05-09T08:31:56.809Z,7.46
2024-05-09T08:34:00.123Z,7.49
2024-05-09T08:36:03.332Z,7.49
2024-05-09T08:38:08.726Z,7.46
2024-05-09T08:40:23.682Z,7.46
2024-05-09T08:42:36.910Z,7.41
2024-05-09T08:44:41.162Z,7.39
2024-05-09T08:46:52.092Z,7.32
2024-05-09T08:48:57.854Z,7.33
2024-05-09T08:51:02.389Z,7.31
2024-05-09T08:53:06.500Z,7.28
2024-05-09T08:55:09.771Z,7.28
2024-05-09T08:57:18.961Z,7.28
2024-05-09T08:59:28.745Z,7.27
2024-05-09T09:01:32.997Z,7.24
2024-05-09T09:03:39.677Z,7.22
2024-05-09T09:05:53.655Z,7.19
2024-05-09T09:07:57.225Z,7.16
2024-05-09T09:10:29.580Z,7.14
2024-05-09T09:12:35.787Z,7.11
2024-05-09T09:14:39.354Z,7.12
2024-05-09T09:16:42.396Z,7.07
2024-05-09T09:18:48.564Z,7.07
2024-05-09T09:20:52.308Z,7.07
2024-05-09T09:22:56.336Z,7.02
2024-05-09T09:24:59.370Z,7.02
2024-05-09T09:27:03.184Z,7.03
2024-05-09T09:29:06.506Z,7.00
2024-05-09T09:31:09.609Z,6.97
2024-05-09T09:33:13.957Z,6.98
2024-05-09T09:35:18.040Z,7.00
2024-05-09T09:37:29.465Z,6.99
2024-05-09T09:39:34.805Z,6.96
2024-05-09T09:41:39.219Z,6.94
2024-05-09T09:43:44.174Z,6.90
2024-05-09T09:45:50.978Z,6.89
2024-05-09T09:47:58.015Z,6.89
2024-05-09T09:50:04.139Z,6.88
2024-05-09T09:52:11.221Z,6.85
2024-05-09T09:54:14.721Z,6.85
2024-05-09T09:56:20.440Z,6.84
2024-05-09T09:58:25.011Z,6.84
2024-05-09T10:00:33.032Z,6.84
2024-05-09T10:02:37.092Z,6.82
2024-05-09T10:04:40.666Z,6.80
2024-05-09T10:07:00.950Z,6.78
2024-05-09T10:09:04.799Z,6.78
2024-05-09T10:11:07.964Z,6.75
2024-05-09T10:13:11.238Z,6.77
2024-05-09T10:15:14.232Z,6.77
2024-05-09T10:17:17.971Z,6.74
2024-05-09T10:19:28.135Z,6.75
2024-05-09T10:21:31.955Z,6.73
2024-05-09T10:37:51.573Z,6.56
2024-05-09T10:39:56.208Z,6.57
2024-05-09T10:41:59.928Z,6.57
2024-05-09T10:44:03.426Z,6.56
2024-05-09T10:46:07.604Z,6.58
2024-05-09T10:48:10.811Z,6.57
2024-05-09T10:50:22.263Z,6.57
2024-05-09T10:52:31.201Z,6.55
2024-05-09T10:54:38.667Z,6.58
2024-05-09T10:56:42.538Z,6.56
2024-05-09T10:58:45.610Z,6.54
2024-05-09T11:00:49.664Z,6.56
2024-05-09T11:02:52.833Z,6.53
2024-05-09T11:04:56.600Z,6.53
2024-05-09T11:07:05.178Z,6.54
2024-05-09T11:09:09.253Z,6.54
2024-05-09T11:11:12.504Z,6.57
2024-05-09T11:13:15.602Z,6.61
2024-05-09T11:15:18.786Z,6.62
2024-05-09T11:17:22.208Z,6.64
2024-05-09T11:19:31.027Z,6.65
2024-05-09T11:21:34.471Z,6.67
2024-05-09T11:23:39.084Z,6.70
2024-05-09T11:25:42.221Z,6.74
2024-05-09T11:27:45.300Z,6.75
2024-05-09T11:29:48.311Z,6.76
2024-05-09T11:31:51.340Z,6.78
2024-05-09T11:33:55.569Z,6.83
2024-05-09T11:35:59.248Z,6.86
2024-05-09T11:38:02.361Z,6.88
2024-05-09T11:40:11.444Z,6.92
2024-05-09T11:42:17.963Z,6.94
2024-05-09T11:44:20.969Z,6.95
2024-05-09T11:46:24.738Z,6.99
2024-05-09T11:48:28.963Z,7.03
2024-05-09T11:50:35.602Z,7.04
2024-05-09T11:52:41.309Z,7.08
2024-05-09T11:54:44.361Z,7.12
2024-05-09T11:56:47.630Z,7.17
2024-05-09T11:58:50.698Z,7.20
2024-05-09T12:00:53.831Z,7.24
2024-05-09T12:02:59.379Z,7.28
2024-05-09T12:05:02.606Z,7.34
2024-05-09T12:07:06.873Z,7.38
2024-05-09T12:09:10.925Z,7.44
2024-05-09T12:11:17.330Z,7.49
2024-05-09T12:13:20.628Z,7.52
2024-05-09T12:15:24.425Z,7.56
2024-05-09T12:17:28.552Z,7.59
2024-05-09T12:19:31.754Z,7.66
2024-05-09T12:21:34.870Z,7.69
2024-05-09T12:23:38.314Z,7.70
2024-05-09T12:25:41.474Z,7.80
2024-05-09T12:27:46.155Z,7.87
2024-05-09T12:29:49.453Z,7.88
2024-05-09T12:31:52.485Z,7.93
2024-05-09T12:33:55.560Z,7.98
2024-05-09T12:35:59.069Z,8.05
2024-05-09T12:38:02.215Z,8.13
2024-05-09T12:40:10.619Z,8.22
2024-05-09T12:42:26.764Z,8.30
2024-05-09T12:44:31.131Z,8.38
2024-05-09T12:46:34.966Z,8.43
2024-05-09T12:48:39.219Z,8.50
2024-05-09T12:50:42.676Z,8.54
2024-05-09T12:52:46.180Z,8.57
2024-05-09T12:54:49.401Z,8.61
2024-05-09T12:56:53.372Z,8.69
2024-05-09T12:58:57.015Z,8.73
2024-05-09T13:01:00.295Z,8.78
2024-05-09T13:03:03.568Z,8.84
2024-05-09T13:05:07.244Z,8.86
2024-05-09T13:07:10.554Z,8.93
2024-05-09T13:09:14.366Z,8.99
2024-05-09T13:11:17.508Z,9.03
2024-05-09T13:13:20.737Z,9.07
2024-05-09T13:15:23.867Z,9.13
2024-05-09T13:17:27.545Z,9.16
2024-05-09T13:19:30.770Z,9.21
2024-05-09T13:21:34.568Z,9.27
2024-05-09T13:23:38.439Z,9.31
2024-05-09T13:25:41.964Z,9.37
2024-05-09T13:27:45.184Z,9.42
2024-05-09T13:29:48.525Z,9.49
2024-05-09T13:31:51.557Z,9.53
2024-05-09T13:33:54.693Z,9.58
2024-05-09T13:35:58.387Z,9.62
2024-05-09T13:38:03.281Z,9.68
2024-05-09T13:40:09.581Z,9.75
2024-05-09T13:42:15.084Z,9.81
2024-05-09T13:44:18.206Z,9.87
2024-05-09T13:46:21.943Z,9.91
2024-05-09T13:48:25.499Z,9.95
2024-05-09T13:50:34.270Z,10.01
2024-05-09T13:52:39.416Z,10.06
2024-05-09T13:54:42.524Z,10.11
2024-05-09T13:56:46.461Z,10.15
2024-05-09T13:58:51.563Z,10.20
2024-05-09T14:00:54.856Z,10.22
2024-05-09T14:02:58.700Z,10.28
2024-05-09T14:05:02.468Z,10.33
2024-05-09T14:07:05.935Z,10.40
2024-05-09T14:09:10.241Z,10.39
2024-05-09T14:11:13.453Z,10.48
2024-05-09T14:13:17.531Z,10.53
2024-05-09T14:15:20.707Z,10.58
2024-05-09T14:17:23.846Z,10.63
2024-05-09T14:19:27.072Z,10.67
2024-05-09T14:21:30.206Z,10.71
2024-05-09T14:23:33.268Z,10.76
2024-05-09T14:25:40.529Z,10.82
2024-05-09T14:27:45.544Z,10.87
2024-05-09T14:29:48.556Z,10.91
2024-05-09T14:31:51.606Z,10.93
2024-05-09T14:33:54.798Z,10.94
2024-05-09T14:35:58.518Z,10.97
2024-05-09T14:38:01.834Z,11.03
2024-05-09T14:40:07.069Z,11.08
2024-05-09T14:42:10.762Z,11.10
2024-05-09T14:44:14.013Z,11.18
2024-05-09T14:46:17.906Z,11.21
2024-05-09T14:48:21.433Z,11.27
2024-05-09T14:50:34.435Z,11.31
2024-05-09T14:52:40.761Z,11.41
2024-05-09T14:54:43.855Z,11.46
2024-05-09T14:56:47.038Z,11.51
2024-05-09T14:58:50.969Z,11.61
2024-05-09T15:00:54.108Z,11.64
2024-05-09T15:02:57.230Z,11.71
2024-05-09T15:05:00.645Z,11.76
2024-05-09T15:07:03.945Z,11.83
2024-05-09T15:09:08.158Z,11.88
2024-05-09T15:11:11.798Z,11.93
2024-05-09T15:13:16.654Z,11.96
2024-05-09T15:15:20.262Z,12.02
2024-05-09T15:17:24.198Z,12.07
2024-05-09T15:19:27.467Z,12.11
2024-05-09T15:21:31.439Z,12.15
2024-05-09T15:23:34.544Z,12.24
2024-05-09T15:25:38.482Z,12.31
2024-05-09T15:27:42.306Z,12.36
2024-05-09T15:29:45.783Z,12.45
2024-05-09T15:31:49.687Z,12.53
2024-05-09T15:33:52.837Z,12.61
2024-05-09T15:35:56.813Z,12.68
2024-05-09T15:38:04.525Z,12.74
2024-05-09T15:40:15.442Z,12.79
2024-05-09T15:42:25.275Z,12.89
2024-05-09T15:44:28.448Z,12.95
2024-05-09T15:46:31.522Z,13.00
2024-05-09T15:48:34.885Z,13.00
2024-05-09T15:50:41.339Z,13.05
2024-05-09T15:52:45.656Z,13.12
2024-05-09T15:54:50.085Z,13.17
2024-05-09T15:56:54.295Z,13.21
2024-05-09T15:58:57.655Z,13.27
2024-05-09T16:01:00.979Z,13.30
2024-05-09T16:03:05.071Z,13.32
2024-05-09T16:05:08.528Z,13.30
2024-05-09T16:07:11.821Z,13.32
2024-05-09T16:09:15.628Z,13.35
2024-05-09T16:11:21.228Z,13.40
2024-05-09T16:13:24.568Z,13.46
2024-05-09T16:15:27.710Z,13.49
2024-05-09T16:17:31.111Z,13.52
2024-05-09T16:19:34.254Z,13.59
2024-05-09T16:21:37.376Z,13.65
2024-05-09T16:23:41.006Z,13.69
2024-05-09T16:25:47.388Z,13.70
2024-05-09T16:27:53.126Z,13.74
2024-05-09T16:29:59.058Z,13.84
2024-05-09T16:32:02.176Z,13.86
2024-05-09T16:34:05.439Z,13.91
2024-05-09T16:36:09.099Z,13.95
2024-05-09T16:38:12.773Z,13.96
2024-05-09T16:40:25.337Z,14.02
2024-05-09T16:42:37.164Z,14.05
2024-05-09T16:44:40.691Z,14.10
2024-05-09T16:46:43.729Z,14.18
2024-05-09T16:48:47.675Z,14.30
2024-05-09T16:50:50.805Z,14.39
2024-05-09T16:52:53.841Z,14.48
2024-05-09T16:54:57.674Z,14.55
2024-05-09T16:57:01.492Z,14.65
2024-05-09T16:59:04.582Z,14.66
2024-05-09T17:01:07.953Z,14.74
2024-05-09T17:03:14.249Z,14.81
2024-05-09T17:05:19.070Z,14.84
2024-05-09T17:07:23.040Z,14.91
2024-05-09T17:09:26.166Z,14.94
2024-05-09T17:11:29.236Z,15.02
2024-05-09T17:13:33.454Z,15.06
2024-05-09T17:15:38.030Z,15.12
2024-05-09T17:17:41.594Z,15.09
2024-05-09T17:19:47.941Z,15.08
2024-05-09T17:21:51.633Z,15.07
2024-05-09T17:23:56.865Z,15.12
2024-05-09T17:25:59.910Z,15.12
2024-05-09T17:28:08.395Z,15.11
2024-05-09T17:30:17.752Z,15.13
2024-05-09T17:32:27.828Z,15.11
2024-05-09T17:34:31.796Z,15.13
2024-05-09T17:36:35.412Z,15.13
2024-05-09T17:38:38.812Z,15.14
2024-05-09T17:40:41.978Z,15.13
2024-05-09T17:42:45.126Z,15.14
2024-05-09T17:44:48.541Z,15.15
2024-05-09T17:46:51.670Z,15.14
2024-05-09T17:48:56.457Z,15.14
2024-05-09T17:51:00.441Z,15.14
2024-05-09T17:53:03.796Z,15.12
2024-05-09T17:55:08.531Z,15.15
2024-05-09T17:57:11.823Z,15.12
2024-05-09T17:59:15.261Z,15.10
2024-05-09T18:01:18.464Z,15.09
2024-05-09T18:03:24.412Z,15.07
2024-05-09T18:05:29.577Z,15.08
2024-05-09T18:07:42.483Z,15.09
2024-05-09T18:09:46.744Z,15.07
2024-05-09T18:11:49.970Z,15.09
2024-05-09T18:13:55.512Z,15.08
2024-05-09T18:15:58.973Z,15.07
2024-05-09T18:18:03.801Z,15.08
2024-05-09T18:20:11.292Z,15.09
2024-05-09T18:22:17.588Z,15.05
2024-05-09T18:24:22.571Z,15.10
2024-05-09T18:26:26.047Z,15.09
2024-05-09T18:28:30.031Z,15.14
2024-05-09T18:30:35.575Z,15.14
2024-05-09T18:32:40.212Z,15.19
2024-05-09T18:34:43.347Z,15.19
2024-05-09T18:36:47.212Z,15.25
2024-05-09T18:38:50.695Z,15.25
2024-05-09T18:40:55.161Z,15.36
2024-05-09T18:42:58.317Z,15.39
2024-05-09T18:45:01.897Z,15.45
2024-05-09T18:47:05.619Z,15.52
2024-05-09T18:49:09.144Z,15.58
2024-05-09T18:51:12.328Z,15.64
2024-05-09T18:53:16.535Z,15.70
2024-05-09T18:55:19.780Z,15.77
2024-05-09T18:57:22.893Z,15.82
2024-05-09T18:59:25.962Z,15.86
2024-05-09T19:01:29.360Z,15.92
2024-05-09T19:03:32.810Z,15.91
2024-05-09T19:05:36.930Z,15.96
2024-05-09T19:07:40.059Z,16.00
2024-05-09T19:09:43.149Z,16.04
2024-05-09T19:11:46.274Z,16.12
2024-05-09T19:13:49.488Z,16.17
2024-05-09T19:15:52.985Z,16.19
2024-05-09T19:17:56.200Z,16.26
2024-05-09T19:19:59.408Z,16.31
2024-05-09T19:22:06.847Z,16.36
2024-05-09T19:24:10.768Z,16.46
2024-05-09T19:26:14.129Z,16.49
2024-05-09T19:28:17.366Z,16.52
2024-05-09T19:30:29.355Z,16.58
2024-05-09T19:32:40.408Z,16.66
2024-05-09T19:34:43.580Z,16.70
2024-05-09T19:36:46.865Z,16.78
2024-05-09T19:38:52.281Z,16.87
2024-05-09T19:40:55.536Z,16.98
2024-05-09T19:42:58.818Z,17.04
2024-05-09T19:45:04.588Z,17.09
2024-05-09T19:47:07.793Z,17.17
2024-05-09T19:49:11.263Z,17.25
2024-05-09T19:51:14.725Z,17.24
2024-05-09T19:53:17.865Z,17.28
2024-05-09T19:55:20.953Z,17.35
2024-05-09T19:57:24.070Z,17.37
2024-05-09T19:59:27.173Z,17.37
2024-05-09T20:01:30.255Z,17.36
2024-05-09T20:03:37.377Z,17.37
2024-05-09T20:05:40.862Z,17.38
2024-05-09T20:07:44.625Z,17.37
2024-05-09T20:09:47.819Z,17.36
2024-05-09T20:11:50.912Z,17.34
2024-05-09T20:13:53.994Z,17.32
2024-05-09T20:15:57.228Z,17.31
2024-05-09T20:18:01.076Z,17.30
2024-05-09T20:20:07.331Z,17.28
2024-05-09T20:22:10.644Z,17.27
2024-05-09T20:24:13.961Z,17.23
2024-05-09T20:26:17.063Z,17.21
2024-05-09T20:28:20.229Z,17.22
2024-05-09T20:30:30.550Z,17.16
2024-05-09T20:32:35.787Z,17.14
2024-05-09T20:34:38.953Z,17.13
2024-05-09T20:36:42.129Z,17.11
2024-05-09T20:38:45.245Z,17.07
2024-05-09T20:40:49.433Z,17.07
2024-05-09T20:42:53.511Z,17.04
2024-05-09T20:44:56.588Z,17.02
2024-05-09T20:46:59.664Z,17.00
2024-05-09T20:49:02.903Z,16.98
2024-05-09T20:51:06.296Z,16.92
2024-05-09T20:53:14.549Z,16.88
2024-05-09T20:55:18.627Z,16.82
2024-05-09T20:57:21.679Z,16.81
2024-05-09T20:59:24.764Z,16.78
2024-05-09T21:01:27.922Z,16.78
2024-05-09T21:03:35.349Z,16.76
2024-05-09T21:05:38.676Z,16.71
2024-05-09T21:07:41.899Z,16.71
2024-05-09T21:09:44.941Z,16.70
2024-05-09T21:11:48.028Z,16.68
2024-05-09T21:13:52.534Z,16.63
2024-05-09T21:15:55.706Z,16.60
2024-05-09T21:17:59.146Z,16.61
2024-05-09T21:20:02.875Z,16.57
2024-05-09T21:22:06.127Z,16.57
2024-05-09T21:24:09.456Z,16.58
2024-05-09T21:26:13.419Z,16.53
2024-05-09T21:28:16.667Z,16.53
2024-05-09T21:30:31.289Z,16.53
2024-05-09T21:32:41.967Z,16.55
2024-05-09T21:34:45.078Z,16.52
2024-05-09T21:36:48.282Z,16.55
2024-05-09T21:38:51.398Z,16.56
2024-05-09T21:40:55.402Z,16.53
2024-05-09T21:42:59.329Z,16.51
2024-05-09T21:45:03.167Z,16.50
2024-05-09T21:47:06.331Z,16.50
2024-05-09T21:49:09.596Z,16.49
2024-05-09T21:51:16.752Z,16.49
2024-05-09T21:53:19.895Z,16.49
2024-05-09T21:55:23.831Z,16.49
2024-05-09T21:57:27.519Z,16.50
2024-05-09T21:59:31.216Z,16.49
2024-05-09T22:01:36.457Z,16.48
2024-05-09T22:03:40.334Z,16.48
2024-05-09T22:05:45.347Z,16.49
2024-05-09T22:07:48.626Z,16.48
2024-05-09T22:09:51.672Z,16.51
2024-05-09T22:11:56.588Z,16.46
2024-05-09T22:14:00.747Z,16.44
2024-05-09T22:16:06.831Z,16.47
2024-05-09T22:18:11.398Z,16.45
2024-05-09T22:20:28.853Z,16.43
2024-05-09T22:22:38.986Z,16.43
2024-05-09T22:24:42.582Z,16.39
2024-05-09T22:26:45.658Z,16.40
2024-05-09T22:28:48.683Z,16.37
2024-05-09T22:30:53.463Z,16.36
2024-05-09T22:32:57.209Z,16.34
2024-05-09T22:35:00.609Z,16.32
2024-05-09T22:37:04.430Z,16.29
2024-05-09T22:39:08.888Z,16.29
2024-05-09T22:41:12.537Z,16.25
2024-05-09T22:43:19.662Z,16.23
2024-05-09T22:45:23.673Z,16.22
2024-05-09T22:47:26.861Z,16.18
2024-05-09T22:49:29.995Z,16.13
2024-05-09T22:51:33.194Z,16.14
2024-05-09T22:53:36.287Z,16.12
2024-05-09T22:55:39.351Z,16.08
2024-05-09T22:57:42.467Z,16.10
2024-05-09T22:59:45.592Z,16.08
2024-05-09T23:01:48.704Z,16.02
2024-05-09T23:03:55.279Z,16.01
2024-05-09T23:05:58.394Z,15.96
2024-05-09T23:08:04.444Z,15.92
2024-05-09T23:10:13.363Z,15.83
2024-05-09T23:12:20.405Z,15.77
2024-05-09T23:14:23.457Z,15.75
2024-05-09T23:16:26.623Z,15.68
2024-05-09T23:18:29.995Z,15.62
2024-05-09T23:20:37.897Z,15.56
2024-05-09T23:22:42.827Z,15.49
2024-05-09T23:24:45.895Z,15.42
2024-05-09T23:26:49.012Z,15.37
2024-05-09T23:28:52.088Z,15.27
2024-05-09T23:30:55.138Z,15.19
2024-05-09T23:32:58.328Z,15.14
2024-05-09T23:35:01.532Z,15.07
2024-05-09T23:37:05.554Z,15.01
2024-05-09T23:39:09.416Z,14.95
2024-05-09T23:41:12.893Z,14.86
2024-05-09T23:43:16.441Z,14.81
2024-05-09T23:45:19.547Z,14.73
2024-05-09T23:47:23.264Z,14.66
2024-05-09T23:49:26.406Z,14.60
2024-05-09T23:51:29.917Z,14.52
2024-05-09T23:53:32.966Z,14.47
2024-05-09T23:55:36.078Z,14.42
2024-05-09T23:57:39.125Z,14.35
2024-05-09T23:59:42.375Z,14.30
